Terminal Aerodrome Forecast
Issued by NWS

Home | Current Version | Previous Version | Text Only | Print | Product List | Glossary On
Versions: 1 2 3 4 5 6 7 8 9 10 11 12 13 14 15 16 17 18 19 20 21 22 23 24 25 26 27 28 29 30 31 32 33 34 35 36 37 38 39 40 41 42 43 44 45 46 47 48 49 50
000
FTUS41 KCTP 271507 AAB
TAFBFD
TAF AMD
KBFD 271507Z 2715/2812 VRB03KT 2SM -SN BR BKN010 OVC015
      TEMPO 2715/2717 1SM -SN OVC009
     FM271700 32008KT P6SM -SHSN BKN012 OVC020
     FM272100 30010G18KT 1 1/2SM -SN BKN008 OVC015
     FM280000 28012G18KT 1SM -SN OVC008=

USA.gov is the U.S. government's official web portal to all federal, state and local government web resources and services.